Cozumel, México

7:48 PM EDT en Junio 22, 2017 (GMT -0400)
Hotel Grand Velas | | Change Station

Alt 0 ft 20.67 °N, 87.02 °W | Updated 14 minutes ago

Parcialmente nublado
Parcialmente nublado
85.0 ° F
Sensación térmica 98 ° F
N
8.0
Viento Variable Viento desde NE
Gusts 15.0 mph

Hoy
Alta -- | Baja -- ° F
--% Posibilidad de precipitaciones
Ayer
Alta -- | Baja -- ° F
Precip. -- pul
Presión 29.89 pul
Visibilidad 7.0 Millas
Nubes Nubes dispersas 1500 ft
Índice de calor 98 ° F
Punto de rocío 79 ° F
Humedad 83%
Precipitaciones 0.04 pul
Espesor de la nieve No disponible.
7:09 AM 8:33 PM
Creciente menguante, 2% visible
METAR MMUN 222245Z 13010KT 7SM SCT015TCU 30/25 A2989 RMK 8/200
Presión 29.89 pul
Visibilidad 7.0 Millas
Nubes Nubes dispersas 1500 ft
Índice de calor 98 ° F
Punto de rocío 79 ° F
Humedad 83%
Precipitaciones 0.04 pul
Espesor de la nieve No disponible.
7:09 AM 8:33 PM
Creciente menguante, 2% visible
METAR MMUN 222245Z 13010KT 7SM SCT015TCU 30/25 A2989 RMK 8/200

Get Severe Weather Alerts

Thanks for signing up!

Be on the lookout for a verification email in your inbox.

You'll start receiving the daily forecast at 6 AM.

×

10-Day Weather Forecast

No radar image for this location.
×

Almanac

Astronomía

Jun. 22, 2017 Salida Puesta
Hora real
Crepúsculo civil
Crepúsculo náutico
Crepúsculo astronómico
Luna
Horas de luz
Horas de luz
Tomorrow will be .
, % of the Moon is Illuminated

Extremos de hoy

Máximos del país Bajas del país

Community

WunderPhotos

Category 6

Welcome to Category 6. This is the collective home for Weather Underground's featured writeups by Dr. Jeff Masters (right), Bob Henson (left), Chris Burt, and other regular contributors.

Nearby

Calidad del aire

  Calidad del aire Índice AQ Contaminante
Not available.

Grosos de nieve

Estación Profundido Altura

Actividad de terremotos

Ciudad Distance Mag. Tiempo y dato
Magnitud mínima muestra es 2,5.

Temperaturas de aguas costeras

Lugar Temperatura

Stations

Estaciones meteorológicas cercanas

Ubicación de la estación Temp. Vientos helados Punto de rocío Humedad Viento Precip. Alt Actualizado Tipo